sensor_id;sensor_type;location;lat;lon;timestamp;pressure;altitude;pressure_sealevel;temperature;humidity
10202;BME280;5143;42.584;23.164;2023-12-14T00:00:37;91619.81;;;12.64;77.58
10202;BME280;5143;42.584;23.164;2023-12-14T00:03:03;91621.75;;;12.69;76.74
10202;BME280;5143;42.584;23.164;2023-12-14T00:05:30;91602.59;;;12.69;76.19
10202;BME280;5143;42.584;23.164;2023-12-14T00:07:58;91600.38;;;12.67;76.29
10202;BME280;5143;42.584;23.164;2023-12-14T00:10:25;91599.78;;;12.74;75.37
10202;BME280;5143;42.584;23.164;2023-12-14T00:12:52;91611.38;;;12.80;74.81
10202;BME280;5143;42.584;23.164;2023-12-14T00:15:20;91614.44;;;12.77;75.28
10202;BME280;5143;42.584;23.164;2023-12-14T00:17:47;91619.91;;;12.77;74.82
10202;BME280;5143;42.584;23.164;2023-12-14T00:20:13;91637.75;;;12.65;76.07
10202;BME280;5143;42.584;23.164;2023-12-14T00:22:40;91635.13;;;12.54;76.24
10202;BME280;5143;42.584;23.164;2023-12-14T00:25:08;91617.22;;;12.53;76.55
10202;BME280;5143;42.584;23.164;2023-12-14T00:27:35;91622.34;;;12.62;75.51
10202;BME280;5143;42.584;23.164;2023-12-14T00:30:01;91610.41;;;12.78;74.30
10202;BME280;5143;42.584;23.164;2023-12-14T00:32:28;91610.84;;;13.00;72.90
10202;BME280;5143;42.584;23.164;2023-12-14T00:34:55;91607.75;;;12.91;73.29
10202;BME280;5143;42.584;23.164;2023-12-14T00:37:22;91623.59;;;12.98;72.91
10202;BME280;5143;42.584;23.164;2023-12-14T00:39:48;91617.81;;;12.83;73.67
10202;BME280;5143;42.584;23.164;2023-12-14T00:42:16;91618.56;;;12.83;73.38
10202;BME280;5143;42.584;23.164;2023-12-14T00:44:43;91614.72;;;12.73;73.97
10202;BME280;5143;42.584;23.164;2023-12-14T00:47:10;91597.63;;;12.49;74.37
10202;BME280;5143;42.584;23.164;2023-12-14T00:49:36;91629.22;;;12.68;73.97
10202;BME280;5143;42.584;23.164;2023-12-14T00:52:04;91606.72;;;12.75;73.41
10202;BME280;5143;42.584;23.164;2023-12-14T00:54:31;91614.19;;;12.75;73.38
10202;BME280;5143;42.584;23.164;2023-12-14T00:56:57;91624.94;;;12.73;73.37
10202;BME280;5143;42.584;23.164;2023-12-14T00:59:25;91617.97;;;12.72;74.03
10202;BME280;5143;42.584;23.164;2023-12-14T01:01:52;91601.41;;;12.64;73.54
10202;BME280;5143;42.584;23.164;2023-12-14T01:04:19;91601.84;;;12.68;73.42
10202;BME280;5143;42.584;23.164;2023-12-14T01:06:45;91621.97;;;12.71;73.02
10202;BME280;5143;42.584;23.164;2023-12-14T01:09:12;91615.16;;;12.77;72.71
10202;BME280;5143;42.584;23.164;2023-12-14T01:11:39;91610.66;;;12.80;72.35
10202;BME280;5143;42.584;23.164;2023-12-14T01:14:05;91601.63;;;12.85;71.54
10202;BME280;5143;42.584;23.164;2023-12-14T01:16:33;91606.78;;;12.88;71.34
10202;BME280;5143;42.584;23.164;2023-12-14T01:19:00;91584.66;;;12.86;70.29
10202;BME280;5143;42.584;23.164;2023-12-14T01:21:27;91602.53;;;13.06;69.92
10202;BME280;5143;42.584;23.164;2023-12-14T01:23:53;91589.94;;;13.16;69.00
10202;BME280;5143;42.584;23.164;2023-12-14T01:26:20;91598.53;;;13.26;68.27
10202;BME280;5143;42.584;23.164;2023-12-14T01:28:47;91596.72;;;13.15;68.59
10202;BME280;5143;42.584;23.164;2023-12-14T01:31:13;91601.66;;;13.17;68.51
10202;BME280;5143;42.584;23.164;2023-12-14T01:33:42;91596.59;;;13.02;69.44
10202;BME280;5143;42.584;23.164;2023-12-14T01:36:08;91594.56;;;13.08;68.47
10202;BME280;5143;42.584;23.164;2023-12-14T01:38:36;91554.66;;;12.94;68.10
10202;BME280;5143;42.584;23.164;2023-12-14T01:41:03;91594.38;;;13.19;67.38
10202;BME280;5143;42.584;23.164;2023-12-14T01:43:30;91592.75;;;13.29;66.83
10202;BME280;5143;42.584;23.164;2023-12-14T01:45:57;91606.13;;;13.33;66.42
10202;BME280;5143;42.584;23.164;2023-12-14T01:48:23;91597.59;;;13.36;66.25
10202;BME280;5143;42.584;23.164;2023-12-14T01:50:51;91581.91;;;13.37;66.04
10202;BME280;5143;42.584;23.164;2023-12-14T01:53:18;91578.22;;;13.34;65.93
10202;BME280;5143;42.584;23.164;2023-12-14T01:55:45;91582.41;;;13.35;65.72
10202;BME280;5143;42.584;23.164;2023-12-14T01:58:11;91577.75;;;13.30;65.99
10202;BME280;5143;42.584;23.164;2023-12-14T02:00:42;91575.41;;;13.21;65.84
10202;BME280;5143;42.584;23.164;2023-12-14T02:03:10;91583.50;;;13.14;66.59
10202;BME280;5143;42.584;23.164;2023-12-14T02:05:37;91574.41;;;13.06;66.62
10202;BME280;5143;42.584;23.164;2023-12-14T02:08:05;91584.16;;;13.20;66.26
10202;BME280;5143;42.584;23.164;2023-12-14T02:10:32;91575.81;;;13.12;66.71
10202;BME280;5143;42.584;23.164;2023-12-14T02:13:01;91584.06;;;13.12;66.52
10202;BME280;5143;42.584;23.164;2023-12-14T02:15:28;91572.66;;;13.08;66.93
10202;BME280;5143;42.584;23.164;2023-12-14T02:17:55;91581.88;;;13.05;66.85
10202;BME280;5143;42.584;23.164;2023-12-14T02:20:21;91576.34;;;13.11;66.71
10202;BME280;5143;42.584;23.164;2023-12-14T02:22:50;91556.94;;;13.09;67.07
10202;BME280;5143;42.584;23.164;2023-12-14T02:25:17;91577.22;;;13.00;67.27
10202;BME280;5143;42.584;23.164;2023-12-14T02:27:44;91561.84;;;12.97;67.55
10202;BME280;5143;42.584;23.164;2023-12-14T02:30:12;91552.16;;;12.96;67.88
10202;BME280;5143;42.584;23.164;2023-12-14T02:32:39;91577.22;;;13.00;67.25
10202;BME280;5143;42.584;23.164;2023-12-14T02:35:07;91555.31;;;13.00;67.54
10202;BME280;5143;42.584;23.164;2023-12-14T02:37:34;91570.66;;;12.90;68.11
10202;BME280;5143;42.584;23.164;2023-12-14T02:40:05;91558.22;;;12.89;68.41
10202;BME280;5143;42.584;23.164;2023-12-14T02:42:32;91558.97;;;12.89;68.50
10202;BME280;5143;42.584;23.164;2023-12-14T02:44:59;91562.00;;;12.86;68.30
10202;BME280;5143;42.584;23.164;2023-12-14T02:47:27;91564.97;;;12.88;67.99
10202;BME280;5143;42.584;23.164;2023-12-14T02:49:54;91564.91;;;12.93;67.69
10202;BME280;5143;42.584;23.164;2023-12-14T02:52:20;91571.84;;;12.94;67.61
10202;BME280;5143;42.584;23.164;2023-12-14T02:54:47;91572.03;;;12.96;67.73
10202;BME280;5143;42.584;23.164;2023-12-14T02:57:15;91563.03;;;13.01;67.11
10202;BME280;5143;42.584;23.164;2023-12-14T02:59:42;91574.94;;;13.04;66.84
10202;BME280;5143;42.584;23.164;2023-12-14T03:02:08;91576.88;;;13.09;67.29
10202;BME280;5143;42.584;23.164;2023-12-14T03:04:37;91581.00;;;12.97;67.28
10202;BME280;5143;42.584;23.164;2023-12-14T03:07:04;91584.63;;;13.05;67.06
10202;BME280;5143;42.584;23.164;2023-12-14T03:09:30;91583.16;;;13.04;67.05
10202;BME280;5143;42.584;23.164;2023-12-14T03:11:57;91574.69;;;13.02;67.03
10202;BME280;5143;42.584;23.164;2023-12-14T03:14:25;91575.75;;;12.99;67.96
10202;BME280;5143;42.584;23.164;2023-12-14T03:16:52;91575.69;;;12.86;68.20
10202;BME280;5143;42.584;23.164;2023-12-14T03:19:19;91587.47;;;12.81;67.78
10202;BME280;5143;42.584;23.164;2023-12-14T03:21:45;91584.78;;;12.94;67.37
10202;BME280;5143;42.584;23.164;2023-12-14T03:24:12;91580.78;;;12.95;67.36
10202;BME280;5143;42.584;23.164;2023-12-14T03:26:39;91590.78;;;12.92;67.70
10202;BME280;5143;42.584;23.164;2023-12-14T03:29:05;91589.53;;;12.93;67.36
10202;BME280;5143;42.584;23.164;2023-12-14T03:31:34;91582.03;;;12.94;67.19
10202;BME280;5143;42.584;23.164;2023-12-14T03:34:01;91584.34;;;12.90;67.83
10202;BME280;5143;42.584;23.164;2023-12-14T03:36:28;91583.19;;;12.85;68.08
10202;BME280;5143;42.584;23.164;2023-12-14T03:38:54;91577.06;;;12.61;68.89
10202;BME280;5143;42.584;23.164;2023-12-14T03:41:20;91579.34;;;12.75;68.41
10202;BME280;5143;42.584;23.164;2023-12-14T03:43:47;91584.59;;;12.73;68.65
10202;BME280;5143;42.584;23.164;2023-12-14T03:46:14;91584.06;;;12.75;69.08
10202;BME280;5143;42.584;23.164;2023-12-14T03:48:42;91570.13;;;12.60;69.67
10202;BME280;5143;42.584;23.164;2023-12-14T03:51:08;91574.91;;;12.54;69.96
10202;BME280;5143;42.584;23.164;2023-12-14T03:53:35;91576.69;;;12.51;70.69
10202;BME280;5143;42.584;23.164;2023-12-14T03:56:03;91576.41;;;12.55;70.49
10202;BME280;5143;42.584;23.164;2023-12-14T03:58:30;91578.56;;;12.43;71.42
10202;BME280;5143;42.584;23.164;2023-12-14T04:00:57;91569.16;;;12.38;71.61
10202;BME280;5143;42.584;23.164;2023-12-14T04:03:23;91566.34;;;12.25;72.09
10202;BME280;5143;42.584;23.164;2023-12-14T04:05:52;91571.97;;;12.33;72.46
10202;BME280;5143;42.584;23.164;2023-12-14T04:08:18;91570.28;;;12.30;72.62
10202;BME280;5143;42.584;23.164;2023-12-14T04:10:45;91569.31;;;12.27;72.59
10202;BME280;5143;42.584;23.164;2023-12-14T04:13:12;91570.34;;;12.24;72.76
10202;BME280;5143;42.584;23.164;2023-12-14T04:15:39;91589.03;;;12.20;73.25
10202;BME280;5143;42.584;23.164;2023-12-14T04:18:06;91584.97;;;12.08;74.10
10202;BME280;5143;42.584;23.164;2023-12-14T04:20:33;91566.47;;;12.14;73.77
10202;BME280;5143;42.584;23.164;2023-12-14T04:23:02;91580.41;;;12.16;73.45
10202;BME280;5143;42.584;23.164;2023-12-14T04:25:28;91571.38;;;12.21;73.40
10202;BME280;5143;42.584;23.164;2023-12-14T04:27:55;91581.28;;;12.24;72.85
10202;BME280;5143;42.584;23.164;2023-12-14T04:30:22;91577.53;;;12.27;72.86
10202;BME280;5143;42.584;23.164;2023-12-14T04:32:48;91575.06;;;12.24;72.70
10202;BME280;5143;42.584;23.164;2023-12-14T04:35:16;91569.53;;;12.29;72.56
10202;BME280;5143;42.584;23.164;2023-12-14T04:37:42;91574.25;;;12.29;72.99
10202;BME280;5143;42.584;23.164;2023-12-14T04:40:11;91569.75;;;12.31;72.86
10202;BME280;5143;42.584;23.164;2023-12-14T04:42:38;91571.81;;;12.25;73.16
10202;BME280;5143;42.584;23.164;2023-12-14T04:45:06;91564.56;;;12.28;72.76
10202;BME280;5143;42.584;23.164;2023-12-14T04:47:34;91570.78;;;12.28;73.17
10202;BME280;5143;42.584;23.164;2023-12-14T04:50:01;91560.72;;;12.36;72.31
10202;BME280;5143;42.584;23.164;2023-12-14T04:52:28;91574.19;;;12.34;72.26
10202;BME280;5143;42.584;23.164;2023-12-14T04:54:55;91580.53;;;12.42;71.83
10202;BME280;5143;42.584;23.164;2023-12-14T04:57:23;91584.84;;;12.38;72.22
10202;BME280;5143;42.584;23.164;2023-12-14T04:59:49;91586.91;;;12.51;71.09
10202;BME280;5143;42.584;23.164;2023-12-14T05:02:16;91558.88;;;12.44;71.43
10202;BME280;5143;42.584;23.164;2023-12-14T05:04:43;91569.97;;;12.52;70.94
10202;BME280;5143;42.584;23.164;2023-12-14T05:07:09;91578.91;;;12.53;71.00
10202;BME280;5143;42.584;23.164;2023-12-14T05:09:36;91564.63;;;12.60;70.43
10202;BME280;5143;42.584;23.164;2023-12-14T05:12:03;91567.59;;;12.62;70.21
10202;BME280;5143;42.584;23.164;2023-12-14T05:14:31;91562.78;;;12.68;70.08
10202;BME280;5143;42.584;23.164;2023-12-14T05:16:58;91575.34;;;12.76;69.26
10202;BME280;5143;42.584;23.164;2023-12-14T05:19:25;91585.03;;;12.77;69.22
10202;BME280;5143;42.584;23.164;2023-12-14T05:21:52;91591.56;;;12.74;69.44
10202;BME280;5143;42.584;23.164;2023-12-14T05:24:19;91588.84;;;12.74;69.36
10202;BME280;5143;42.584;23.164;2023-12-14T05:26:46;91584.41;;;12.71;69.47
10202;BME280;5143;42.584;23.164;2023-12-14T05:29:13;91585.09;;;12.72;69.72
10202;BME280;5143;42.584;23.164;2023-12-14T05:31:41;91590.28;;;12.75;69.39
10202;BME280;5143;42.584;23.164;2023-12-14T05:34:07;91562.72;;;12.55;69.78
10202;BME280;5143;42.584;23.164;2023-12-14T05:36:34;91588.91;;;12.69;69.58
10202;BME280;5143;42.584;23.164;2023-12-14T05:39:01;91584.97;;;12.64;70.06
10202;BME280;5143;42.584;23.164;2023-12-14T05:41:29;91578.47;;;12.67;69.91
10202;BME280;5143;42.584;23.164;2023-12-14T05:43:56;91587.94;;;12.66;70.15
10202;BME280;5143;42.584;23.164;2023-12-14T05:46:23;91587.50;;;12.62;70.24
10202;BME280;5143;42.584;23.164;2023-12-14T05:48:51;91600.00;;;12.58;70.40
10202;BME280;5143;42.584;23.164;2023-12-14T05:51:26;91584.00;;;12.62;70.06
10202;BME280;5143;42.584;23.164;2023-12-14T05:53:53;91577.28;;;12.63;70.38
10202;BME280;5143;42.584;23.164;2023-12-14T05:56:20;91586.00;;;12.61;70.37
10202;BME280;5143;42.584;23.164;2023-12-14T05:58:46;91581.13;;;12.54;70.17
10202;BME280;5143;42.584;23.164;2023-12-14T06:01:16;91584.09;;;12.56;70.59
10202;BME280;5143;42.584;23.164;2023-12-14T06:03:43;91602.28;;;12.54;70.92
10202;BME280;5143;42.584;23.164;2023-12-14T06:06:11;91598.38;;;12.49;71.00
10202;BME280;5143;42.584;23.164;2023-12-14T06:08:39;91605.38;;;12.44;71.49
10202;BME280;5143;42.584;23.164;2023-12-14T06:11:06;91597.41;;;12.47;71.53
10202;BME280;5143;42.584;23.164;2023-12-14T06:13:33;91606.88;;;12.46;72.14
10202;BME280;5143;42.584;23.164;2023-12-14T06:16:00;91613.53;;;12.31;73.15
10202;BME280;5143;42.584;23.164;2023-12-14T06:18:27;91607.84;;;12.29;72.88
10202;BME280;5143;42.584;23.164;2023-12-14T06:20:53;91628.91;;;12.34;72.69
10202;BME280;5143;42.584;23.164;2023-12-14T06:23:21;91638.81;;;12.37;72.81
10202;BME280;5143;42.584;23.164;2023-12-14T06:25:48;91631.50;;;12.46;72.44
10202;BME280;5143;42.584;23.164;2023-12-14T06:28:15;91623.00;;;12.49;71.92
10202;BME280;5143;42.584;23.164;2023-12-14T06:30:41;91633.66;;;12.53;72.53
10202;BME280;5143;42.584;23.164;2023-12-14T06:33:08;91624.94;;;12.54;71.83
10202;BME280;5143;42.584;23.164;2023-12-14T06:35:35;91617.53;;;12.68;71.30
10202;BME280;5143;42.584;23.164;2023-12-14T06:38:02;91622.56;;;12.64;71.31
10202;BME280;5143;42.584;23.164;2023-12-14T06:40:30;91617.59;;;12.62;71.11
10202;BME280;5143;42.584;23.164;2023-12-14T06:42:57;91620.94;;;12.74;70.90
10202;BME280;5143;42.584;23.164;2023-12-14T06:45:23;91625.81;;;12.81;70.34
10202;BME280;5143;42.584;23.164;2023-12-14T06:47:50;91646.69;;;12.84;70.59
10202;BME280;5143;42.584;23.164;2023-12-14T06:50:17;91630.63;;;12.93;70.12
10202;BME280;5143;42.584;23.164;2023-12-14T06:52:43;91633.28;;;12.99;70.02
10202;BME280;5143;42.584;23.164;2023-12-14T06:55:10;91628.75;;;13.01;69.93
10202;BME280;5143;42.584;23.164;2023-12-14T06:57:39;91631.19;;;13.05;69.81
10202;BME280;5143;42.584;23.164;2023-12-14T07:00:07;91621.13;;;13.13;69.56
10202;BME280;5143;42.584;23.164;2023-12-14T07:02:33;91637.72;;;13.21;68.95
10202;BME280;5143;42.584;23.164;2023-12-14T07:05:00;91634.25;;;13.20;69.08
10202;BME280;5143;42.584;23.164;2023-12-14T07:07:27;91640.69;;;13.23;69.30
10202;BME280;5143;42.584;23.164;2023-12-14T07:09:54;91636.59;;;13.29;68.98
10202;BME280;5143;42.584;23.164;2023-12-14T07:12:20;91644.94;;;13.37;68.59
10202;BME280;5143;42.584;23.164;2023-12-14T07:14:48;91641.66;;;13.38;68.76
10202;BME280;5143;42.584;23.164;2023-12-14T07:17:15;91638.50;;;13.34;68.85
10202;BME280;5143;42.584;23.164;2023-12-14T07:19:42;91647.38;;;13.40;68.69
10202;BME280;5143;42.584;23.164;2023-12-14T07:22:09;91650.25;;;13.48;68.53
10202;BME280;5143;42.584;23.164;2023-12-14T07:24:35;91649.50;;;13.47;68.51
10202;BME280;5143;42.584;23.164;2023-12-14T07:27:02;91668.41;;;13.51;68.59
10202;BME280;5143;42.584;23.164;2023-12-14T07:29:29;91653.41;;;13.52;68.52
10202;BME280;5143;42.584;23.164;2023-12-14T07:31:57;91651.03;;;13.62;68.55
10202;BME280;5143;42.584;23.164;2023-12-14T07:34:24;91657.47;;;13.64;68.34
10202;BME280;5143;42.584;23.164;2023-12-14T07:36:53;91667.88;;;13.52;69.12
10202;BME280;5143;42.584;23.164;2023-12-14T07:39:20;91650.72;;;13.65;69.26
10202;BME280;5143;42.584;23.164;2023-12-14T07:41:47;91665.16;;;13.66;69.36
10202;BME280;5143;42.584;23.164;2023-12-14T07:44:13;91647.97;;;13.65;69.42
10202;BME280;5143;42.584;23.164;2023-12-14T07:46:40;91652.47;;;13.63;69.66
10202;BME280;5143;42.584;23.164;2023-12-14T07:49:09;91634.56;;;13.62;69.88
10202;BME280;5143;42.584;23.164;2023-12-14T07:51:36;91638.56;;;13.60;69.88
10202;BME280;5143;42.584;23.164;2023-12-14T07:54:04;91634.56;;;13.62;69.79
10202;BME280;5143;42.584;23.164;2023-12-14T07:56:30;91643.28;;;13.47;70.59
10202;BME280;5143;42.584;23.164;2023-12-14T07:58:58;91651.84;;;13.56;70.62
10202;BME280;5143;42.584;23.164;2023-12-14T08:01:25;91665.19;;;13.79;69.95
10202;BME280;5143;42.584;23.164;2023-12-14T08:03:51;91664.38;;;13.84;69.77
10202;BME280;5143;42.584;23.164;2023-12-14T08:06:19;91663.34;;;14.00;69.93
10202;BME280;5143;42.584;23.164;2023-12-14T08:08:46;91667.44;;;14.06;69.38
10202;BME280;5143;42.584;23.164;2023-12-14T08:11:13;91659.34;;;14.14;69.11
10202;BME280;5143;42.584;23.164;2023-12-14T08:13:40;91659.63;;;14.10;68.78
10202;BME280;5143;42.584;23.164;2023-12-14T08:16:07;91648.31;;;14.01;69.12
10202;BME280;5143;42.584;23.164;2023-12-14T08:18:34;91659.19;;;13.93;69.18
10202;BME280;5143;42.584;23.164;2023-12-14T08:21:01;91659.94;;;13.94;69.50
10202;BME280;5143;42.584;23.164;2023-12-14T08:23:29;91678.94;;;13.92;69.79
10202;BME280;5143;42.584;23.164;2023-12-14T08:25:56;91652.97;;;13.93;69.79
10202;BME280;5143;42.584;23.164;2023-12-14T08:28:24;91670.91;;;13.94;70.15
10202;BME280;5143;42.584;23.164;2023-12-14T08:30:51;91663.97;;;14.06;70.21
10202;BME280;5143;42.584;23.164;2023-12-14T08:33:17;91667.63;;;13.95;70.63
10202;BME280;5143;42.584;23.164;2023-12-14T08:35:44;91658.34;;;13.98;71.28
10202;BME280;5143;42.584;23.164;2023-12-14T08:38:11;91668.19;;;14.07;70.68
10202;BME280;5143;42.584;23.164;2023-12-14T08:40:39;91669.13;;;14.09;70.92
10202;BME280;5143;42.584;23.164;2023-12-14T08:43:06;91660.38;;;14.11;70.68
10202;BME280;5143;42.584;23.164;2023-12-14T08:45:32;91662.69;;;13.94;71.17
10202;BME280;5143;42.584;23.164;2023-12-14T08:47:59;91666.47;;;14.04;70.91
10202;BME280;5143;42.584;23.164;2023-12-14T08:50:26;91671.38;;;14.24;70.82
10202;BME280;5143;42.584;23.164;2023-12-14T08:52:53;91686.16;;;14.34;70.35
10202;BME280;5143;42.584;23.164;2023-12-14T08:55:19;91669.69;;;14.34;70.49
10202;BME280;5143;42.584;23.164;2023-12-14T08:57:48;91668.00;;;14.57;69.94
10202;BME280;5143;42.584;23.164;2023-12-14T09:00:15;91673.25;;;14.82;69.42
10202;BME280;5143;42.584;23.164;2023-12-14T09:02:42;91674.63;;;14.75;69.10
10202;BME280;5143;42.584;23.164;2023-12-14T09:05:11;91679.41;;;14.74;68.93
10202;BME280;5143;42.584;23.164;2023-12-14T09:07:38;91671.44;;;14.84;68.98
10202;BME280;5143;42.584;23.164;2023-12-14T09:10:06;91662.63;;;15.12;68.49
10202;BME280;5143;42.584;23.164;2023-12-14T09:12:33;91646.56;;;15.16;68.17
10202;BME280;5143;42.584;23.164;2023-12-14T09:15:02;91639.88;;;15.11;67.45
10202;BME280;5143;42.584;23.164;2023-12-14T09:17:29;91641.28;;;15.05;67.90
10202;BME280;5143;42.584;23.164;2023-12-14T09:19:58;91654.50;;;15.06;67.76
10202;BME280;5143;42.584;23.164;2023-12-14T09:22:25;91652.88;;;15.11;67.59
10202;BME280;5143;42.584;23.164;2023-12-14T09:24:52;91655.75;;;15.05;67.78
10202;BME280;5143;42.584;23.164;2023-12-14T09:27:19;91670.25;;;15.06;68.09
10202;BME280;5143;42.584;23.164;2023-12-14T09:29:45;91660.53;;;14.92;68.58
10202;BME280;5143;42.584;23.164;2023-12-14T09:32:14;91652.06;;;15.03;68.19
10202;BME280;5143;42.584;23.164;2023-12-14T09:34:42;91668.97;;;15.07;68.22
10202;BME280;5143;42.584;23.164;2023-12-14T09:37:09;91648.44;;;15.21;68.13
10202;BME280;5143;42.584;23.164;2023-12-14T09:39:36;91651.56;;;15.25;67.44
10202;BME280;5143;42.584;23.164;2023-12-14T09:42:04;91660.69;;;15.20;68.00
10202;BME280;5143;42.584;23.164;2023-12-14T09:44:31;91669.19;;;15.09;68.02
10202;BME280;5143;42.584;23.164;2023-12-14T09:46:59;91662.78;;;15.27;67.21
10202;BME280;5143;42.584;23.164;2023-12-14T09:49:28;91658.09;;;15.35;67.99
10202;BME280;5143;42.584;23.164;2023-12-14T09:51:55;91660.28;;;15.50;66.83
10202;BME280;5143;42.584;23.164;2023-12-14T09:54:22;91673.44;;;15.64;66.77
10202;BME280;5143;42.584;23.164;2023-12-14T09:56:49;91672.44;;;15.75;66.87
10202;BME280;5143;42.584;23.164;2023-12-14T09:59:18;91670.03;;;15.51;65.82
10202;BME280;5143;42.584;23.164;2023-12-14T10:01:45;91667.81;;;15.49;65.82
10202;BME280;5143;42.584;23.164;2023-12-14T10:04:13;91666.34;;;15.48;66.59
10202;BME280;5143;42.584;23.164;2023-12-14T10:06:42;91658.59;;;15.47;66.30
10202;BME280;5143;42.584;23.164;2023-12-14T10:09:10;91661.34;;;15.47;66.51
10202;BME280;5143;42.584;23.164;2023-12-14T10:11:38;91660.00;;;15.40;66.28
10202;BME280;5143;42.584;23.164;2023-12-14T10:14:17;91661.88;;;15.45;66.78
10202;BME280;5143;42.584;23.164;2023-12-14T10:16:44;91655.06;;;15.59;66.65
10202;BME280;5143;42.584;23.164;2023-12-14T10:19:11;91656.34;;;15.58;66.85
10202;BME280;5143;42.584;23.164;2023-12-14T10:21:38;91650.44;;;15.41;66.55
10202;BME280;5143;42.584;23.164;2023-12-14T10:24:07;91657.19;;;15.19;66.85
10202;BME280;5143;42.584;23.164;2023-12-14T10:26:33;91653.31;;;15.15;67.61
10202;BME280;5143;42.584;23.164;2023-12-14T10:29:01;91642.63;;;15.11;68.21
10202;BME280;5143;42.584;23.164;2023-12-14T10:31:30;91654.84;;;14.90;68.05
10202;BME280;5143;42.584;23.164;2023-12-14T10:33:57;91651.06;;;14.80;69.27
10202;BME280;5143;42.584;23.164;2023-12-14T10:36:25;91645.34;;;14.91;69.13
10202;BME280;5143;42.584;23.164;2023-12-14T10:38:53;91648.28;;;14.93;68.87
10202;BME280;5143;42.584;23.164;2023-12-14T10:41:22;91644.25;;;15.07;68.82
10202;BME280;5143;42.584;23.164;2023-12-14T10:43:50;91641.94;;;14.98;68.60
10202;BME280;5143;42.584;23.164;2023-12-14T10:46:18;91657.25;;;15.06;68.37
10202;BME280;5143;42.584;23.164;2023-12-14T10:48:47;91666.78;;;14.92;68.31
10202;BME280;5143;42.584;23.164;2023-12-14T10:51:15;91680.00;;;14.94;69.24
10202;BME280;5143;42.584;23.164;2023-12-14T10:54:00;91674.81;;;14.90;69.71
10202;BME280;5143;42.584;23.164;2023-12-14T10:56:27;91679.81;;;14.78;70.05
10202;BME280;5143;42.584;23.164;2023-12-14T10:58:56;91672.66;;;14.62;70.83
10202;BME280;5143;42.584;23.164;2023-12-14T11:01:25;91677.19;;;14.60;71.59
10202;BME280;5143;42.584;23.164;2023-12-14T11:03:54;91678.25;;;14.44;72.55
10202;BME280;5143;42.584;23.164;2023-12-14T11:06:28;91685.75;;;14.56;72.72
10202;BME280;5143;42.584;23.164;2023-12-14T11:08:57;91693.59;;;14.52;73.68
10202;BME280;5143;42.584;23.164;2023-12-14T11:11:29;91702.88;;;14.62;73.60
10202;BME280;5143;42.584;23.164;2023-12-14T11:13:56;91714.50;;;14.55;74.25
10202;BME280;5143;42.584;23.164;2023-12-14T11:16:26;91715.28;;;14.24;75.63
10202;BME280;5143;42.584;23.164;2023-12-14T11:19:24;91714.81;;;14.07;77.94
10202;BME280;5143;42.584;23.164;2023-12-14T11:22:09;91726.19;;;13.53;83.02
10202;BME280;5143;42.584;23.164;2023-12-14T11:24:37;91740.78;;;13.05;95.56
10202;BME280;5143;42.584;23.164;2023-12-14T11:27:09;91741.19;;;12.72;100.00
10202;BME280;5143;42.584;23.164;2023-12-14T11:29:36;91742.34;;;12.33;100.00
10202;BME280;5143;42.584;23.164;2023-12-14T11:32:03;91745.13;;;12.04;100.00
10202;BME280;5143;42.584;23.164;2023-12-14T11:34:31;91743.44;;;11.71;100.00
10202;BME280;5143;42.584;23.164;2023-12-14T11:36:58;91744.19;;;11.66;100.00
10202;BME280;5143;42.584;23.164;2023-12-14T11:39:30;91748.16;;;11.70;100.00
10202;BME280;5143;42.584;23.164;2023-12-14T11:42:00;91755.63;;;11.70;100.00
10202;BME280;5143;42.584;23.164;2023-12-14T11:44:28;91763.63;;;11.57;100.00
10202;BME280;5143;42.584;23.164;2023-12-14T11:46:55;91757.84;;;11.36;100.00
10202;BME280;5143;42.584;23.164;2023-12-14T11:49:24;91769.91;;;11.11;100.00
10202;BME280;5143;42.584;23.164;2023-12-14T11:51:51;91772.38;;;11.14;100.00
10202;BME280;5143;42.584;23.164;2023-12-14T11:54:18;91771.44;;;11.01;100.00
10202;BME280;5143;42.584;23.164;2023-12-14T11:56:46;91781.38;;;11.04;100.00
10202;BME280;5143;42.584;23.164;2023-12-14T11:59:14;91781.94;;;10.86;100.00
10202;BME280;5143;42.584;23.164;2023-12-14T12:01:55;91774.88;;;10.49;100.00
10202;BME280;5143;42.584;23.164;2023-12-14T12:04:22;91780.41;;;10.22;100.00
10202;BME280;5143;42.584;23.164;2023-12-14T12:06:49;91797.28;;;10.15;100.00
10202;BME280;5143;42.584;23.164;2023-12-14T12:09:34;91778.19;;;9.98;100.00
10202;BME280;5143;42.584;23.164;2023-12-14T12:12:02;91809.16;;;9.78;100.00
10202;BME280;5143;42.584;23.164;2023-12-14T12:14:31;91782.91;;;9.75;100.00
10202;BME280;5143;42.584;23.164;2023-12-14T12:16:59;91801.47;;;9.66;100.00
10202;BME280;5143;42.584;23.164;2023-12-14T12:19:26;91801.25;;;9.58;100.00
10202;BME280;5143;42.584;23.164;2023-12-14T12:21:52;91799.72;;;9.46;100.00
10202;BME280;5143;42.584;23.164;2023-12-14T12:24:20;91803.94;;;9.47;100.00
10202;BME280;5143;42.584;23.164;2023-12-14T12:26:46;91787.09;;;9.43;100.00
10202;BME280;5143;42.584;23.164;2023-12-14T12:29:13;91790.81;;;9.40;100.00
10202;BME280;5143;42.584;23.164;2023-12-14T12:31:40;91812.88;;;9.42;100.00
10202;BME280;5143;42.584;23.164;2023-12-14T12:34:09;91795.97;;;9.21;100.00
10202;BME280;5143;42.584;23.164;2023-12-14T12:36:35;91783.59;;;9.26;100.00
10202;BME280;5143;42.584;23.164;2023-12-14T12:39:03;91809.63;;;9.38;100.00
10202;BME280;5143;42.584;23.164;2023-12-14T12:41:31;91788.84;;;9.46;100.00
10202;BME280;5143;42.584;23.164;2023-12-14T12:43:58;91803.44;;;9.43;100.00
10202;BME280;5143;42.584;23.164;2023-12-14T12:46:24;91804.91;;;9.33;100.00
10202;BME280;5143;42.584;23.164;2023-12-14T12:48:51;91806.66;;;9.36;100.00
10202;BME280;5143;42.584;23.164;2023-12-14T12:51:19;91809.56;;;9.16;100.00
10202;BME280;5143;42.584;23.164;2023-12-14T12:53:46;91820.72;;;9.18;100.00
10202;BME280;5143;42.584;23.164;2023-12-14T12:56:13;91809.06;;;9.06;100.00
10202;BME280;5143;42.584;23.164;2023-12-14T12:58:40;91812.25;;;8.99;100.00
10202;BME280;5143;42.584;23.164;2023-12-14T13:01:07;91820.69;;;9.12;100.00